Time;durP1;ratioP1;P1;durP2;ratioP2;P2;SDS_P1;SDS_P2;PMS_P1;PMS_P2;Temp;Humidity;BMP_temperature;BMP_pressure;BME280_temperature;BME280_humidity;BME280_pressure;Samples;Min_cycle;Max_cycle;Signal;HPM_P1;HPM_P2
2021/08/25 00:00:18;;;;;;;5.43;2.70;;;;;;;13.63;72.13;101842.19;698050;28;1039;-56
2021/08/25 00:00:39;;;;;;;5.20;2.60;;;;;;;13.66;72.52;101842.19;697168;28;1493;-53
2021/08/25 00:01:00;;;;;;;5.30;2.80;;;;;;;13.65;73.31;101850.94;697388;28;1613;-55
2021/08/25 00:01:20;;;;;;;4.80;2.72;;;;;;;13.65;72.71;101847.44;697657;28;1583;-56
2021/08/25 00:01:40;;;;;;;4.77;2.70;;;;;;;13.67;72.44;101843.09;700642;28;969;-53
2021/08/25 00:02:03;;;;;;;6.70;2.90;;;;;;;13.62;71.61;101846.59;699948;28;4575;-54
2021/08/25 00:02:23;;;;;;;5.03;2.60;;;;;;;13.56;70.50;101845.69;698233;28;1299;-52
2021/08/25 00:02:43;;;;;;;5.30;2.60;;;;;;;13.56;71.43;101841.31;700120;28;1610;-56
2021/08/25 00:03:05;;;;;;;5.35;2.92;;;;;;;13.55;71.17;101844.78;700335;28;1649;-52
2021/08/25 00:03:26;;;;;;;5.50;2.67;;;;;;;13.59;71.33;101846.56;700462;28;1494;-52
2021/08/25 00:03:46;;;;;;;5.22;2.50;;;;;;;13.63;71.78;101845.69;701015;28;1091;-54
2021/08/25 00:04:06;;;;;;;4.37;2.53;;;;;;;13.62;71.36;101845.69;700610;28;1367;-53
2021/08/25 00:04:27;;;;;;;4.95;2.75;;;;;;;13.58;70.76;101847.47;699947;28;1372;-56
2021/08/25 00:04:49;;;;;;;5.83;3.00;;;;;;;13.65;71.50;101842.19;700033;28;1657;-56
2021/08/25 00:05:10;;;;;;;5.65;2.78;;;;;;;13.57;72.65;101842.19;699131;28;4687;-54
2021/08/25 00:05:30;;;;;;;4.80;2.50;;;;;;;13.53;71.63;101841.31;699553;28;1900;-54
2021/08/25 00:05:52;;;;;;;4.68;2.50;;;;;;;13.57;72.32;101842.19;699855;28;1612;-53
2021/08/25 00:06:12;;;;;;;5.30;2.75;;;;;;;13.55;70.84;101842.16;700300;28;1820;-52
2021/08/25 00:06:32;;;;;;;4.70;2.80;;;;;;;13.49;70.45;101847.44;700746;28;1448;-53
2021/08/25 00:06:53;;;;;;;5.60;2.80;;;;;;;13.49;70.96;101844.81;701217;28;947;-53
2021/08/25 00:07:13;;;;;;;5.77;2.63;;;;;;;13.48;71.19;101836.91;700394;28;1135;-52
2021/08/25 00:07:34;;;;;;;5.80;2.83;;;;;;;13.49;71.35;101843.94;700099;28;1223;-56
2021/08/25 00:07:54;;;;;;;6.00;2.80;;;;;;;13.50;71.33;101851.81;700039;28;4355;-53
2021/08/25 00:08:16;;;;;;;5.20;2.88;;;;;;;13.54;71.83;101843.06;699565;28;3342;-52
2021/08/25 00:08:37;;;;;;;6.20;3.00;;;;;;;13.55;73.19;101847.44;699592;28;1366;-54
2021/08/25 00:08:58;;;;;;;5.10;2.80;;;;;;;13.52;72.00;101847.44;700356;28;1179;-56
2021/08/25 00:09:18;;;;;;;4.32;2.63;;;;;;;13.55;72.54;101839.53;700404;28;1442;-55
2021/08/25 00:09:43;;;;;;;5.17;2.77;;;;;;;13.56;72.45;101841.31;699268;28;1421;-54
2021/08/25 00:10:04;;;;;;;5.45;2.83;;;;;;;13.56;72.95;101845.69;700633;28;1368;-53
2021/08/25 00:10:24;;;;;;;5.00;2.70;;;;;;;13.58;72.33;101842.19;700455;28;1256;-52
2021/08/25 00:10:45;;;;;;;5.10;2.60;;;;;;;13.56;72.14;101851.81;701256;28;2330;-52
2021/08/25 00:11:05;;;;;;;5.22;2.70;;;;;;;13.59;72.37;101843.94;699779;28;4849;-56
2021/08/25 00:11:25;;;;;;;4.77;2.70;;;;;;;13.59;72.92;101841.31;699895;28;1563;-51
2021/08/25 00:11:46;;;;;;;6.82;2.92;;;;;;;13.59;72.21;101838.69;699765;28;2058;-56
2021/08/25 00:12:07;;;;;;;6.03;3.03;;;;;;;13.61;72.12;101842.19;700862;28;1127;-54
2021/08/25 00:12:30;;;;;;;5.75;2.92;;;;;;;13.60;72.63;101842.19;700078;28;1255;-57
2021/08/25 00:12:50;;;;;;;4.97;2.80;;;;;;;13.57;72.48;101843.06;700665;28;1719;-53
2021/08/25 00:13:11;;;;;;;4.72;2.80;;;;;;;13.57;72.22;101839.56;700223;28;1540;-56
2021/08/25 00:13:31;;;;;;;5.03;2.63;;;;;;;13.57;74.06;101839.56;701237;28;1624;-54
2021/08/25 00:13:51;;;;;;;6.20;2.80;;;;;;;13.56;73.42;101843.94;699712;28;4491;-55
2021/08/25 00:14:14;;;;;;;5.83;2.70;;;;;;;13.50;71.84;101841.31;699770;28;4532;-56
2021/08/25 00:14:42;;;;;;;5.63;2.78;;;;;;;13.53;71.94;101837.81;698649;28;1634;-53
2021/08/25 00:15:04;;;;;;;5.47;2.80;;;;;;;13.53;72.26;101843.94;700682;28;1523;-55
2021/08/25 00:15:24;;;;;;;5.00;2.75;;;;;;;13.57;72.74;101842.19;700300;28;1731;-54
2021/08/25 00:15:44;;;;;;;5.50;3.10;;;;;;;13.55;73.08;101839.53;700282;28;2215;-53
2021/08/25 00:16:05;;;;;;;4.67;2.83;;;;;;;13.53;72.83;101850.94;701078;28;1175;-54
2021/08/25 00:16:25;;;;;;;5.03;2.95;;;;;;;13.48;71.24;101836.91;699898;28;1784;-55
2021/08/25 00:16:46;;;;;;;5.03;2.80;;;;;;;13.49;72.15;101839.53;698415;28;4994;-55
2021/08/25 00:17:07;;;;;;;5.30;2.80;;;;;;;13.56;72.45;101841.31;698056;28;4621;-55
2021/08/25 00:17:27;;;;;;;5.15;2.80;;;;;;;13.50;72.05;101838.69;698906;28;1539;-55
2021/08/25 00:17:48;;;;;;;4.45;2.83;;;;;;;13.51;72.36;101835.16;699665;28;1773;-54
2021/08/25 00:18:10;;;;;;;5.40;3.00;;;;;;;13.48;71.76;101843.03;699984;28;1387;-53
2021/08/25 00:18:31;;;;;;;4.80;2.80;;;;;;;13.48;72.16;101837.78;699832;28;1613;-53
2021/08/25 00:18:51;;;;;;;5.07;2.88;;;;;;;13.53;72.00;101835.19;699538;28;1225;-53
2021/08/25 00:19:12;;;;;;;5.40;2.90;;;;;;;13.56;72.38;101835.19;699576;28;1526;-55
2021/08/25 00:19:32;;;;;;;5.05;2.70;;;;;;;13.59;72.10;101833.41;696866;28;805;-57
2021/08/25 00:19:52;;;;;;;5.20;2.70;;;;;;;13.53;72.28;101840.44;694423;28;4586;-52
2021/08/25 00:20:13;;;;;;;5.03;2.72;;;;;;;13.48;72.24;101837.78;694827;28;1298;-51
2021/08/25 00:20:33;;;;;;;5.20;2.67;;;;;;;13.53;72.59;101836.06;696840;28;1639;-52
2021/08/25 00:20:54;;;;;;;5.45;2.72;;;;;;;13.53;73.87;101836.06;697492;28;1570;-55
2021/08/25 00:21:14;;;;;;;5.50;2.87;;;;;;;13.51;72.78;101835.16;697319;28;1321;-55
2021/08/25 00:21:34;;;;;;;4.82;2.72;;;;;;;13.51;73.63;101829.91;699242;28;1476;-54
2021/08/25 00:21:55;;;;;;;6.40;2.90;;;;;;;13.52;72.85;101834.28;700691;28;1493;-56
2021/08/25 00:22:15;;;;;;;5.32;2.70;;;;;;;13.57;72.34;101831.69;701227;28;1444;-52
2021/08/25 00:22:36;;;;;;;4.87;2.80;;;;;;;13.56;72.54;101833.41;699722;28;1442;-57
2021/08/25 00:22:56;;;;;;;5.40;2.97;;;;;;;13.59;72.66;101835.19;698770;28;4695;-53
2021/08/25 00:23:16;;;;;;;5.57;2.90;;;;;;;13.54;71.61;101837.81;698049;28;1340;-56
2021/08/25 00:23:37;;;;;;;5.80;2.83;;;;;;;13.55;72.28;101829.03;699962;28;1800;-53
2021/08/25 00:23:57;;;;;;;5.70;2.97;;;;;;;13.58;72.13;101829.06;700178;28;1393;-55
2021/08/25 00:24:17;;;;;;;5.83;2.90;;;;;;;13.55;72.60;101829.03;700675;28;1259;-55
2021/08/25 00:24:38;;;;;;;6.13;2.87;;;;;;;13.57;72.63;101826.44;701193;28;1431;-54
2021/08/25 00:24:59;;;;;;;5.10;2.50;;;;;;;13.58;72.03;101829.06;700057;28;1197;-53
2021/08/25 00:25:19;;;;;;;4.32;2.53;;;;;;;13.61;72.13;101825.56;700415;28;3635;-52
2021/08/25 00:25:39;;;;;;;4.70;2.70;;;;;;;13.66;72.07;101830.81;700104;28;3683;-54
2021/08/25 00:26:00;;;;;;;4.77;2.70;;;;;;;13.67;71.94;101824.69;699162;28;4673;-52
2021/08/25 00:26:20;;;;;;;4.80;2.73;;;;;;;13.65;72.20;101829.91;700537;28;1666;-53
2021/08/25 00:26:45;;;;;;;6.93;3.00;;;;;;;13.61;72.76;101828.19;700992;28;1365;-55
2021/08/25 00:27:06;;;;;;;5.78;2.88;;;;;;;13.65;72.28;101823.81;699521;28;1573;-55
2021/08/25 00:27:26;;;;;;;6.03;2.73;;;;;;;13.68;72.05;101829.06;699136;28;1725;-56
2021/08/25 00:27:46;;;;;;;5.47;2.78;;;;;;;13.68;71.73;101821.16;698541;28;1442;-57
2021/08/25 00:28:07;;;;;;;5.83;3.00;;;;;;;13.68;72.01;101822.06;697787;28;1098;-52
2021/08/25 00:28:27;;;;;;;5.97;2.80;;;;;;;13.65;72.34;101824.66;698178;28;1630;-53
2021/08/25 00:28:47;;;;;;;5.28;3.03;;;;;;;13.67;71.96;101832.59;697429;28;4232;-52
2021/08/25 00:29:08;;;;;;;5.70;2.90;;;;;;;13.70;72.04;101825.56;698404;28;4596;-54
2021/08/25 00:29:28;;;;;;;5.05;2.80;;;;;;;13.64;72.21;101825.56;699932;28;1758;-56
2021/08/25 00:29:49;;;;;;;5.53;2.90;;;;;;;13.57;71.55;101827.31;700511;28;2420;-52
2021/08/25 00:30:09;;;;;;;5.63;2.90;;;;;;;13.59;71.71;101824.69;700153;28;1245;-56
2021/08/25 00:30:30;;;;;;;4.80;2.88;;;;;;;13.61;71.90;101828.19;700207;28;1015;-53
2021/08/25 00:30:50;;;;;;;5.88;2.88;;;;;;;13.57;73.35;101822.03;700294;28;1232;-53
2021/08/25 00:31:13;;;;;;;4.57;2.60;;;;;;;13.59;72.18;101828.16;699574;28;1325;-52
2021/08/25 00:31:34;;;;;;;4.82;2.60;;;;;;;13.63;71.96;101816.78;700331;28;4084;-51
2021/08/25 00:31:54;;;;;;;5.15;2.70;;;;;;;13.66;71.67;101823.81;699247;28;4408;-55
2021/08/25 00:32:14;;;;;;;4.97;2.53;;;;;;;13.70;71.54;101822.94;700410;28;1304;-56
2021/08/25 00:32:35;;;;;;;6.20;2.80;;;;;;;13.72;72.29;101825.56;699305;28;2057;-54
2021/08/25 00:32:55;;;;;;;6.40;2.90;;;;;;;13.66;71.59;101820.31;700125;28;1444;-56
2021/08/25 00:33:16;;;;;;;5.97;2.87;;;;;;;13.62;71.54;101822.03;700484;28;1290;-52
2021/08/25 00:33:36;;;;;;;5.88;2.88;;;;;;;13.66;71.90;101821.16;700649;28;2103;-51
2021/08/25 00:33:58;;;;;;;5.30;2.67;;;;;;;13.69;71.60;101820.31;700924;28;1432;-54
2021/08/25 00:34:18;;;;;;;4.72;2.60;;;;;;;13.71;71.54;101824.69;699747;28;1157;-52
2021/08/25 00:34:38;;;;;;;5.17;2.83;;;;;;;13.74;71.53;101818.56;700705;28;3627;-54
2021/08/25 00:34:59;;;;;;;5.68;2.80;;;;;;;13.74;71.54;101824.69;698705;28;4719;-52
2021/08/25 00:35:19;;;;;;;5.87;2.90;;;;;;;13.75;71.96;101817.69;699845;28;1601;-52
2021/08/25 00:35:39;;;;;;;4.97;2.83;;;;;;;13.74;71.39;101819.44;699161;28;1638;-54
2021/08/25 00:36:00;;;;;;;4.70;2.80;;;;;;;13.75;71.32;101815.94;700248;28;1483;-53
2021/08/25 00:36:20;;;;;;;5.57;2.80;;;;;;;13.75;71.88;101817.69;700054;28;1183;-53
2021/08/25 00:36:40;;;;;;;5.25;2.70;;;;;;;13.76;71.47;101811.53;699387;28;1405;-55
2021/08/25 00:37:01;;;;;;;5.33;2.57;;;;;;;13.78;71.32;101817.69;700575;28;1914;-53
2021/08/25 00:37:21;;;;;;;6.13;2.90;;;;;;;13.73;71.84;101811.53;700631;28;1826;-55
2021/08/25 00:37:42;;;;;;;6.30;2.87;;;;;;;13.70;72.13;101817.66;699368;28;4379;-52
2021/08/25 00:38:02;;;;;;;6.17;2.70;;;;;;;13.66;72.21;101817.69;697759;28;4603;-56
2021/08/25 00:38:22;;;;;;;5.10;2.70;;;;;;;13.70;71.89;101816.81;699711;28;1523;-54
2021/08/25 00:38:43;;;;;;;4.97;2.70;;;;;;;13.72;72.27;101809.78;697379;28;1254;-55
2021/08/25 00:39:04;;;;;;;5.10;2.80;;;;;;;13.72;71.24;101815.94;700065;28;1234;-51
2021/08/25 00:39:24;;;;;;;5.50;2.75;;;;;;;13.72;71.73;101815.03;700790;28;925;-54
2021/08/25 00:39:45;;;;;;;5.22;2.58;;;;;;;13.72;71.41;101815.03;698649;28;1764;-54
2021/08/25 00:40:06;;;;;;;4.63;2.60;;;;;;;13.74;71.21;101814.16;699252;28;1407;-53
2021/08/25 00:40:26;;;;;;;5.22;2.70;;;;;;;13.76;71.24;101816.78;700503;28;3444;-54
2021/08/25 00:40:47;;;;;;;6.17;2.87;;;;;;;13.70;72.14;101819.44;700852;28;4799;-54
2021/08/25 00:41:07;;;;;;;5.43;2.90;;;;;;;13.72;72.10;101818.56;699189;28;4454;-54
2021/08/25 00:41:27;;;;;;;6.13;3.00;;;;;;;13.71;72.35;101815.94;699178;28;2172;-56
2021/08/25 00:41:48;;;;;;;6.43;3.00;;;;;;;13.67;71.72;101815.06;700590;28;1532;-54
2021/08/25 00:42:08;;;;;;;6.43;3.00;;;;;;;13.69;71.55;101815.91;701112;28;1164;-51
2021/08/25 00:42:29;;;;;;;5.50;2.70;;;;;;;13.72;71.41;101815.94;700310;28;1676;-56
2021/08/25 00:42:49;;;;;;;5.77;3.00;;;;;;;13.65;71.98;101818.53;698977;28;1864;-56
2021/08/25 00:43:11;;;;;;;4.93;2.70;;;;;;;13.59;71.67;101814.16;700782;28;1716;-53
2021/08/25 00:43:31;;;;;;;4.78;2.80;;;;;;;13.64;71.92;101820.31;700648;28;4172;-53
2021/08/25 00:43:52;;;;;;;5.30;2.70;;;;;;;13.66;71.66;101815.06;699045;28;4500;-52
2021/08/25 00:44:12;;;;;;;5.30;2.70;;;;;;;13.67;71.84;101816.81;699211;28;1819;-54
2021/08/25 00:44:33;;;;;;;5.30;2.80;;;;;;;13.65;71.88;101814.16;699458;28;1878;-52
2021/08/25 00:44:53;;;;;;;5.82;2.80;;;;;;;13.53;70.92;101816.81;699706;28;1705;-56
2021/08/25 00:45:14;;;;;;;4.53;2.60;;;;;;;13.52;71.99;101817.66;700235;28;1291;-52
2021/08/25 00:45:43;;;;;;;6.50;2.75;;;;;;;13.54;73.02;101816.78;700518;28;1060;-52
2021/08/25 00:46:06;;;;;;;6.63;3.40;;;;;;;13.49;72.91;101818.53;700217;28;1324;-53
2021/08/25 00:46:29;;;;;;;5.05;2.80;;;;;;;13.53;73.10;101820.28;699837;28;4207;-51
2021/08/25 00:46:51;;;;;;;5.30;2.60;;;;;;;13.51;72.21;101818.53;699218;28;5199;-53
2021/08/25 00:47:15;;;;;;;5.25;2.70;;;;;;;13.49;72.98;101815.91;699440;28;4873;-56
2021/08/25 00:47:39;;;;;;;5.65;3.00;;;;;;;13.41;73.07;101813.25;699824;28;1508;-55
2021/08/25 00:47:59;;;;;;;6.45;2.65;;;;;;;13.39;73.47;101817.63;699766;28;1680;-52
2021/08/25 00:48:20;;;;;;;7.70;2.90;;;;;;;13.31;73.66;101814.09;699619;28;1453;-55
2021/08/25 00:48:41;;;;;;;5.60;2.73;;;;;;;13.34;72.96;101815.84;699825;28;1108;-55
2021/08/25 00:49:01;;;;;;;5.82;2.72;;;;;;;13.39;73.15;101816.78;700663;28;1277;-56
2021/08/25 00:49:22;;;;;;;5.70;2.92;;;;;;;13.35;73.63;101812.34;701082;28;4110;-54
2021/08/25 00:49:46;;;;;;;5.30;3.00;;;;;;;13.31;72.98;101815.84;699418;28;4500;-52
2021/08/25 00:50:08;;;;;;;5.07;3.00;;;;;;;13.37;72.86;101814.13;698901;28;4350;-54
2021/08/25 00:50:28;;;;;;;5.07;2.80;;;;;;;13.40;74.09;101813.25;700306;28;1726;-56
2021/08/25 00:50:49;;;;;;;5.05;3.00;;;;;;;13.32;73.83;101807.97;700218;28;1502;-54
2021/08/25 00:51:11;;;;;;;5.50;2.85;;;;;;;13.30;72.98;101809.69;700623;28;1297;-54
2021/08/25 00:51:31;;;;;;;6.03;2.75;;;;;;;13.37;73.03;101808.00;700095;28;1556;-54
2021/08/25 00:51:52;;;;;;;5.80;2.80;;;;;;;13.32;72.86;101809.69;701029;28;1043;-53
2021/08/25 00:52:13;;;;;;;5.25;3.13;;;;;;;13.28;72.69;101809.69;700527;28;1489;-54
2021/08/25 00:52:35;;;;;;;5.57;2.90;;;;;;;13.29;73.09;101811.47;699387;28;4290;-54
2021/08/25 00:52:55;;;;;;;5.40;2.80;;;;;;;13.33;73.24;101806.22;698471;28;4410;-56
2021/08/25 00:53:18;;;;;;;5.03;2.77;;;;;;;13.39;72.93;101819.41;699915;28;1909;-54
2021/08/25 00:53:38;;;;;;;5.68;2.75;;;;;;;13.44;72.86;101812.38;700024;28;1781;-52
2021/08/25 00:54:00;;;;;;;6.20;2.90;;;;;;;13.40;74.34;101813.25;700307;28;1421;-55
2021/08/25 00:54:21;;;;;;;5.47;2.85;;;;;;;13.39;73.20;101811.53;700262;28;1249;-57
2021/08/25 00:54:42;;;;;;;5.55;2.65;;;;;;;13.42;72.61;101809.75;700032;28;1348;-53
2021/08/25 00:55:03;;;;;;;4.80;2.70;;;;;;;13.42;72.91;101806.28;699815;28;1914;-54
2021/08/25 00:55:23;;;;;;;4.90;2.80;;;;;;;13.37;74.47;101814.13;699525;28;3878;-54
2021/08/25 00:55:44;;;;;;;5.00;2.80;;;;;;;13.34;73.62;101814.09;699925;28;2878;-51
2021/08/25 00:56:06;;;;;;;5.63;3.20;;;;;;;13.36;73.30;101806.25;699158;28;4461;-52
2021/08/25 00:56:27;;;;;;;6.38;2.90;;;;;;;13.37;73.12;101805.38;700473;28;1667;-55
2021/08/25 00:56:49;;;;;;;5.73;3.00;;;;;;;13.43;73.08;101810.63;700865;28;1423;-54
2021/08/25 00:57:09;;;;;;;6.53;2.80;;;;;;;13.39;73.74;101806.28;699959;28;1913;-53
2021/08/25 00:57:30;;;;;;;5.87;3.00;;;;;;;13.38;73.60;101809.75;700914;28;1500;-52
2021/08/25 00:57:51;;;;;;;5.00;2.90;;;;;;;13.44;73.10;101809.75;700631;28;1039;-55
2021/08/25 00:58:13;;;;;;;6.07;3.00;;;;;;;13.44;73.40;101808.03;700962;28;1536;-55
2021/08/25 00:58:36;;;;;;;6.85;3.00;;;;;;;13.37;71.95;101808.00;699441;28;4727;-56
2021/08/25 00:58:57;;;;;;;5.95;3.15;;;;;;;13.40;72.40;101805.38;699009;28;4399;-53
2021/08/25 00:59:19;;;;;;;5.32;2.97;;;;;;;13.39;73.15;101811.53;700131;28;1437;-53
2021/08/25 00:59:39;;;;;;;5.38;2.80;;;;;;;13.43;72.70;101810.63;701068;28;1497;-56
2021/08/25 00:59:59;;;;;;;5.83;2.90;;;;;;;13.48;72.14;101805.41;700381;28;1302;-52
2021/08/25 01:00:20;;;;;;;5.72;3.00;;;;;;;13.40;72.74;101808.91;700539;28;948;-53
2021/08/25 01:01:02;;;;;;;5.80;3.00;;;;;;;13.31;72.69;101807.97;700480;28;1078;-52
2021/08/25 01:01:57;;;;;;;5.45;3.03;;;;;;;13.35;72.81;101809.72;699643;28;4429;-54
2021/08/25 01:02:36;;;;;;;5.13;2.90;;;;;;;13.29;72.48;101806.22;696169;28;4747;-56
2021/08/25 01:03:17;;;;;;;5.93;2.90;;;;;;;13.30;73.17;101812.31;699926;28;1870;-55
2021/08/25 01:03:52;;;;;;;5.10;2.92;;;;;;;13.25;72.68;101811.44;700870;28;1052;-56
2021/08/25 01:04:43;;;;;;;4.95;3.00;;;;;;;13.28;73.24;101807.06;699579;28;3858;-54
2021/08/25 01:05:06;;;;;;;6.00;2.80;;;;;;;13.25;73.60;101807.06;698726;28;4551;-53
2021/08/25 01:05:34;;;;;;;5.70;2.95;;;;;;;13.26;73.37;101806.22;699714;28;1633;-53
2021/08/25 01:05:57;;;;;;;5.38;3.08;;;;;;;13.23;74.17;101805.31;700640;28;1169;-52
2021/08/25 01:06:21;;;;;;;5.78;2.92;;;;;;;13.18;74.36;101807.94;700814;28;1215;-51
2021/08/25 01:06:42;;;;;;;6.28;3.05;;;;;;;13.21;73.75;101796.53;699341;28;1261;-54
2021/08/25 01:07:03;;;;;;;7.53;3.20;;;;;;;13.21;74.53;101801.78;700410;28;1115;-55
2021/08/25 01:07:27;;;;;;;5.67;2.80;;;;;;;13.17;74.76;101806.19;699847;28;3729;-57
2021/08/25 01:07:48;;;;;;;5.50;2.60;;;;;;;13.20;74.32;101808.81;699815;28;1181;-56
2021/08/25 01:08:10;;;;;;;5.15;2.90;;;;;;;13.19;73.72;101803.56;699337;28;4829;-52
2021/08/25 01:08:31;;;;;;;5.30;3.00;;;;;;;13.23;73.60;101806.19;700776;28;1625;-53
2021/08/25 01:08:54;;;;;;;5.20;2.80;;;;;;;13.30;74.01;101801.81;700784;28;1375;-54
2021/08/25 01:09:14;;;;;;;4.55;2.60;;;;;;;13.25;73.98;101801.81;700468;28;1628;-56
2021/08/25 01:09:39;;;;;;;5.63;2.88;;;;;;;13.23;73.35;101805.31;700687;28;1737;-53
2021/08/25 01:10:00;;;;;;;5.53;2.88;;;;;;;13.24;73.74;101802.69;700136;28;1225;-55
2021/08/25 01:10:23;;;;;;;5.60;2.77;;;;;;;13.19;74.38;101803.56;700208;28;3728;-52
2021/08/25 01:10:43;;;;;;;6.38;2.80;;;;;;;13.14;74.27;101805.28;699813;28;1777;-53
2021/08/25 01:11:07;;;;;;;5.03;2.70;;;;;;;13.11;74.38;101800.88;698967;28;4666;-52
2021/08/25 01:11:27;;;;;;;5.18;2.80;;;;;;;13.11;74.20;101800.88;699985;28;1887;-53
2021/08/25 01:11:48;;;;;;;5.17;2.77;;;;;;;13.17;73.67;101800.94;700790;28;1418;-54
2021/08/25 01:12:09;;;;;;;5.47;2.72;;;;;;;13.19;73.10;101804.41;700130;28;1052;-53
2021/08/25 01:12:30;;;;;;;5.40;2.97;;;;;;;13.21;74.00;101801.78;701043;28;1463;-54
2021/08/25 01:12:51;;;;;;;5.38;3.03;;;;;;;13.17;73.72;101805.31;700887;28;1071;-53
2021/08/25 01:13:12;;;;;;;5.80;2.92;;;;;;;13.19;73.54;101793.91;700061;28;3751;-56
2021/08/25 01:13:32;;;;;;;5.90;3.05;;;;;;;13.25;73.13;101806.19;699287;28;4979;-54
2021/08/25 01:13:53;;;;;;;5.53;3.03;;;;;;;13.28;73.37;101803.59;699351;28;4490;-54
2021/08/25 01:14:14;;;;;;;5.32;2.97;;;;;;;13.28;73.08;101801.81;699823;28;2088;-54
2021/08/25 01:14:35;;;;;;;5.20;2.90;;;;;;;13.29;73.26;101800.97;700198;28;1019;-54
2021/08/25 01:14:57;;;;;;;5.18;2.90;;;;;;;13.29;73.06;101800.06;699604;28;1525;-54
2021/08/25 01:15:18;;;;;;;5.40;3.10;;;;;;;13.22;73.89;101803.56;699351;28;1305;-53
2021/08/25 01:15:41;;;;;;;5.47;2.90;;;;;;;13.20;73.63;101798.31;700139;28;1660;-55
2021/08/25 01:16:01;;;;;;;5.70;3.00;;;;;;;13.25;72.82;101793.03;699924;28;1693;-54
2021/08/25 01:16:24;;;;;;;5.68;2.75;;;;;;;13.29;72.99;101800.06;699960;28;2372;-53
2021/08/25 01:16:46;;;;;;;6.47;2.83;;;;;;;13.33;72.43;101795.69;698041;28;1585;-53
2021/08/25 01:17:09;;;;;;;5.40;2.60;;;;;;;13.37;72.44;101802.75;698814;28;4353;-54
2021/08/25 01:17:29;;;;;;;5.85;2.90;;;;;;;13.32;73.68;101799.19;699915;28;1418;-55
2021/08/25 01:17:52;;;;;;;6.03;2.87;;;;;;;13.27;73.10;101802.69;700717;28;1678;-54
2021/08/25 01:18:17;;;;;;;4.80;2.70;;;;;;;13.26;73.17;101800.97;700550;28;1351;-54
2021/08/25 01:18:38;;;;;;;4.85;2.85;;;;;;;13.23;73.37;101808.81;700509;28;1352;-54
2021/08/25 01:18:58;;;;;;;4.95;2.53;;;;;;;13.29;72.98;101806.22;700459;28;1675;-52
2021/08/25 01:19:21;;;;;;;5.30;2.80;;;;;;;13.34;72.81;101803.59;698960;28;4314;-53
2021/08/25 01:19:51;;;;;;;5.65;3.08;;;;;;;13.26;72.72;101800.06;699934;28;1854;-55
2021/08/25 01:20:13;;;;;;;4.75;2.70;;;;;;;13.31;72.39;101807.97;699555;28;4991;-56
2021/08/25 01:20:35;;;;;;;5.45;2.83;;;;;;;13.26;73.73;101810.56;700480;28;1417;-55
2021/08/25 01:20:59;;;;;;;5.13;3.00;;;;;;;13.19;73.89;101809.66;700238;28;1478;-56
2021/08/25 01:21:20;;;;;;;5.38;3.00;;;;;;;13.17;73.44;101808.81;699989;28;1291;-54
2021/08/25 01:21:41;;;;;;;5.80;3.10;;;;;;;13.19;73.23;101803.56;699267;28;1226;-54
2021/08/25 01:22:01;;;;;;;5.68;3.05;;;;;;;13.19;73.32;101807.03;699724;28;4399;-52
2021/08/25 01:22:24;;;;;;;5.60;3.03;;;;;;;13.22;72.94;101806.19;699223;28;1395;-52
2021/08/25 01:22:44;;;;;;;5.18;2.83;;;;;;;13.27;72.48;101807.06;699808;28;1677;-53
2021/08/25 01:23:04;;;;;;;5.63;3.00;;;;;;;13.29;72.57;101800.06;700463;28;4668;-52
2021/08/25 01:23:26;;;;;;;5.63;3.20;;;;;;;13.19;72.58;101804.41;699312;28;1659;-55
2021/08/25 01:23:47;;;;;;;4.97;2.90;;;;;;;13.06;72.53;101805.28;700168;28;1549;-52
2021/08/25 01:24:10;;;;;;;5.72;2.78;;;;;;;13.00;72.60;101808.75;700291;28;1289;-56
2021/08/25 01:24:31;;;;;;;5.13;2.70;;;;;;;12.99;73.78;101811.34;699550;28;1431;-54
2021/08/25 01:24:56;;;;;;;5.88;2.90;;;;;;;12.99;73.61;101808.72;701013;28;1137;-52
2021/08/25 01:25:16;;;;;;;5.10;2.80;;;;;;;13.00;73.71;101810.50;697828;28;4264;-52
2021/08/25 01:25:37;;;;;;;5.90;2.90;;;;;;;12.99;74.23;101803.47;698779;28;1610;-54
2021/08/25 01:26:00;;;;;;;5.32;2.97;;;;;;;13.00;74.08;101807.88;698864;28;4425;-56
2021/08/25 01:26:21;;;;;;;5.07;2.70;;;;;;;13.08;73.58;101811.38;697607;28;2183;-54
2021/08/25 01:26:42;;;;;;;5.55;2.80;;;;;;;13.13;73.74;101812.28;697911;28;1266;-54
2021/08/25 01:27:04;;;;;;;5.50;2.80;;;;;;;13.16;73.21;101807.03;698347;28;1375;-52
2021/08/25 01:27:28;;;;;;;5.68;2.95;;;;;;;13.20;73.21;101800.94;700628;28;1680;-53
2021/08/25 01:27:53;;;;;;;5.40;2.97;;;;;;;13.18;73.46;101802.69;699334;28;1631;-53
2021/08/25 01:28:17;;;;;;;5.32;3.00;;;;;;;13.07;73.65;101809.63;699813;28;4327;-53
2021/08/25 01:28:45;;;;;;;5.07;3.10;;;;;;;13.01;74.14;101800.00;699701;28;1522;-55
2021/08/25 01:29:17;;;;;;;6.07;3.00;;;;;;;12.98;73.71;101804.38;699862;28;4535;-53
2021/08/25 01:29:37;;;;;;;6.05;3.40;;;;;;;12.92;74.62;101795.59;700234;28;1634;-53
2021/08/25 01:29:59;;;;;;;5.18;2.85;;;;;;;12.96;74.53;101801.75;700534;28;1423;-55
2021/08/25 01:30:24;;;;;;;5.65;2.88;;;;;;;13.04;73.80;101799.13;698737;28;1169;-52
2021/08/25 01:30:47;;;;;;;5.40;2.85;;;;;;;13.02;74.57;101791.25;700379;28;1724;-54
2021/08/25 01:31:07;;;;;;;5.22;3.00;;;;;;;12.95;74.31;101799.97;698901;28;4337;-53
2021/08/25 01:31:28;;;;;;;5.38;3.05;;;;;;;12.90;74.82;101799.06;698527;28;1743;-53
2021/08/25 01:31:50;;;;;;;5.83;3.00;;;;;;;12.89;74.90;101792.97;699090;28;1714;-53
2021/08/25 01:32:10;;;;;;;5.15;3.00;;;;;;;12.93;75.04;101796.47;699253;28;4894;-54
2021/08/25 01:32:35;;;;;;;5.80;3.08;;;;;;;12.96;74.51;101796.50;700693;28;1528;-56
2021/08/25 01:32:58;;;;;;;5.53;2.95;;;;;;;12.86;75.30;101794.69;699902;28;1269;-54
2021/08/25 01:33:24;;;;;;;6.15;3.08;;;;;;;12.80;75.60;101790.28;700489;28;1247;-53
2021/08/25 01:33:44;;;;;;;5.80;3.03;;;;;;;12.83;75.03;101798.19;700789;28;1680;-55
2021/08/25 01:34:06;;;;;;;6.17;3.10;;;;;;;12.92;74.60;101795.59;698886;28;4336;-56
2021/08/25 01:34:26;;;;;;;5.88;3.10;;;;;;;12.92;75.19;101794.72;698391;28;1501;-53
2021/08/25 01:34:53;;;;;;;5.17;2.90;;;;;;;12.97;74.10;101798.22;700042;28;1682;-52
2021/08/25 01:35:13;;;;;;;5.72;3.08;;;;;;;13.05;73.85;101793.00;699730;28;5011;-52
2021/08/25 01:35:38;;;;;;;5.20;2.90;;;;;;;13.07;73.64;101789.53;700960;28;1126;-52
2021/08/25 01:35:59;;;;;;;5.70;3.10;;;;;;;13.05;74.55;101790.38;699603;28;1507;-54
2021/08/25 01:36:19;;;;;;;4.95;2.90;;;;;;;12.99;74.91;101790.34;699102;28;1386;-56
2021/08/25 01:36:39;;;;;;;5.50;3.03;;;;;;;12.95;74.81;101789.47;700674;28;1497;-54
2021/08/25 01:37:00;;;;;;;5.63;3.17;;;;;;;12.89;74.92;101792.06;699377;28;4122;-55
2021/08/25 01:37:21;;;;;;;5.50;3.20;;;;;;;12.89;74.29;101792.06;698601;28;1399;-56
2021/08/25 01:37:42;;;;;;;5.60;2.95;;;;;;;12.98;74.63;101789.50;698643;28;1710;-52
2021/08/25 01:38:03;;;;;;;5.23;2.97;;;;;;;12.96;74.42;101791.25;699889;28;4664;-52
2021/08/25 01:38:28;;;;;;;6.13;2.90;;;;;;;12.94;75.62;101790.34;699842;28;1916;-55
2021/08/25 01:38:55;;;;;;;5.82;3.03;;;;;;;12.88;74.77;101788.59;700493;28;1413;-55
2021/08/25 01:39:15;;;;;;;6.20;3.03;;;;;;;12.93;74.63;101786.84;698995;28;1464;-51
2021/08/25 01:39:36;;;;;;;6.13;2.90;;;;;;;12.94;74.97;101786.00;700001;28;1039;-53
2021/08/25 01:39:56;;;;;;;6.17;3.03;;;;;;;12.86;73.92;101785.09;699338;28;4198;-54
2021/08/25 01:40:17;;;;;;;5.03;2.80;;;;;;;12.87;74.55;101789.44;699397;28;1536;-56
2021/08/25 01:40:37;;;;;;;5.53;2.90;;;;;;;12.83;74.78;101787.69;699285;28;1424;-55
2021/08/25 01:40:57;;;;;;;5.53;3.15;;;;;;;12.81;75.40;101780.66;699660;28;4413;-54
2021/08/25 01:41:20;;;;;;;5.03;3.10;;;;;;;12.81;74.99;101783.28;700476;28;1366;-54
2021/08/25 01:41:40;;;;;;;5.55;3.00;;;;;;;12.85;74.86;101788.56;699954;28;1412;-53
2021/08/25 01:42:00;;;;;;;6.20;3.00;;;;;;;12.82;75.06;101788.56;700062;28;1632;-55
2021/08/25 01:42:22;;;;;;;6.53;3.13;;;;;;;12.78;75.74;101786.81;699222;28;1531;-53
2021/08/25 01:42:43;;;;;;;6.68;3.03;;;;;;;12.72;75.48;101778.91;699749;28;1914;-56
2021/08/25 01:43:07;;;;;;;6.93;2.97;;;;;;;12.73;75.46;101784.16;699011;28;4112;-51
2021/08/25 01:43:27;;;;;;;6.28;3.10;;;;;;;12.80;74.79;101779.81;698797;28;1597;-55
2021/08/25 01:43:56;;;;;;;5.90;3.33;;;;;;;12.80;75.43;101782.44;700185;28;1378;-51
2021/08/25 01:44:17;;;;;;;6.70;3.10;;;;;;;12.73;76.07;101784.16;696605;28;4980;-52